createdAt,value
2023-02-16T00:01:18.062Z,99434.31
2023-02-16T00:03:52.361Z,99438.88
2023-02-16T00:06:26.493Z,99431.69
2023-02-16T00:08:59.667Z,99438.66
2023-02-16T00:11:53.024Z,99444.31
2023-02-16T00:14:29.485Z,99435.91
2023-02-16T00:17:02.589Z,99424.69
2023-02-16T00:19:37.991Z,99429.16
2023-02-16T00:22:11.732Z,99439.00
2023-02-16T00:24:43.627Z,99449.50
2023-02-16T00:27:18.960Z,99442.72
2023-02-16T00:29:51.043Z,99441.22
2023-02-16T00:32:24.268Z,99438.97
2023-02-16T00:34:56.177Z,99444.28
2023-02-16T00:37:28.902Z,99452.28
2023-02-16T00:40:03.770Z,99457.84
2023-02-16T00:42:38.086Z,99455.78
2023-02-16T00:45:19.926Z,99450.66
2023-02-16T00:47:54.120Z,99452.81
2023-02-16T00:50:33.173Z,99439.06
2023-02-16T00:53:05.914Z,99440.63
2023-02-16T00:55:40.207Z,99427.66
2023-02-16T00:58:25.984Z,99427.47
2023-02-16T01:01:09.490Z,99424.09
2023-02-16T01:03:42.171Z,99429.88
2023-02-16T01:06:33.397Z,99415.31
2023-02-16T01:09:34.242Z,99416.50
2023-02-16T01:12:17.479Z,99422.16
2023-02-16T01:14:53.710Z,99416.06
2023-02-16T01:17:28.059Z,99418.28
2023-02-16T01:20:00.454Z,99416.38
2023-02-16T01:22:33.816Z,99411.06
2023-02-16T01:25:06.399Z,99409.97
2023-02-16T01:27:40.387Z,99416.34
2023-02-16T01:30:20.771Z,99415.66
2023-02-16T01:32:53.994Z,99416.78
2023-02-16T01:35:34.349Z,99418.25
2023-02-16T01:38:06.790Z,99418.34
2023-02-16T01:40:46.512Z,99422.31
2023-02-16T01:43:47.876Z,99416.09
2023-02-16T01:46:52.804Z,99422.41
2023-02-16T01:49:26.888Z,99423.00
2023-02-16T01:52:04.449Z,99422.56
2023-02-16T01:54:44.907Z,99422.25
2023-02-16T01:57:56.406Z,99417.72
2023-02-16T02:00:53.649Z,99414.81
2023-02-16T02:03:54.158Z,99410.28
2023-02-16T02:06:35.232Z,99412.78
2023-02-16T02:09:21.804Z,99402.53
2023-02-16T02:12:13.353Z,99411.84
2023-02-16T02:14:49.550Z,99422.28
2023-02-16T02:17:25.040Z,99433.75
2023-02-16T02:20:21.358Z,99427.88
2023-02-16T02:23:31.915Z,99434.88
2023-02-16T02:26:42.380Z,99422.50
2023-02-16T02:29:47.312Z,99420.72
2023-02-16T02:32:35.058Z,99414.34
2023-02-16T02:35:38.363Z,99405.78
2023-02-16T02:38:56.610Z,99413.72
2023-02-16T02:42:05.046Z,99413.88
2023-02-16T02:44:57.939Z,99405.66
2023-02-16T02:47:44.891Z,99408.72
2023-02-16T02:50:39.653Z,99401.88
2023-02-16T02:53:15.405Z,99404.69
2023-02-16T02:56:09.466Z,99395.00
2023-02-16T02:59:00.466Z,99395.53
2023-02-16T03:01:36.663Z,99389.41
2023-02-16T03:04:12.324Z,99393.97
2023-02-16T03:06:49.474Z,99380.22
2023-02-16T03:09:21.599Z,99390.56
2023-02-16T03:12:14.146Z,99391.91
2023-02-16T03:14:52.125Z,99377.03
2023-02-16T03:17:52.264Z,99380.19
2023-02-16T03:20:43.209Z,99380.09
2023-02-16T03:23:34.737Z,99390.44
2023-02-16T03:26:26.018Z,99385.91
2023-02-16T03:29:18.287Z,99391.88
2023-02-16T03:31:52.776Z,99387.19
2023-02-16T03:34:27.055Z,99395.97
2023-02-16T03:37:01.226Z,99398.56
2023-02-16T03:39:53.739Z,99396.22
2023-02-16T03:42:25.696Z,99396.63
2023-02-16T03:44:58.487Z,99391.78
2023-02-16T03:47:30.401Z,99393.38
2023-02-16T03:50:03.462Z,99394.25
2023-02-16T03:52:35.383Z,99391.34
2023-02-16T03:55:08.751Z,99397.09
2023-02-16T03:57:41.029Z,99397.84
2023-02-16T04:00:14.710Z,99397.59
2023-02-16T04:02:47.053Z,99409.56
2023-02-16T04:05:20.046Z,99410.41
2023-02-16T04:07:52.838Z,99407.53
2023-02-16T04:10:25.854Z,99414.53
2023-02-16T04:12:58.276Z,99407.78
2023-02-16T04:15:31.077Z,99417.53
2023-02-16T04:18:03.655Z,99407.97
2023-02-16T04:20:36.680Z,99404.97
2023-02-16T04:23:09.830Z,99410.56
2023-02-16T04:25:41.725Z,99422.16
2023-02-16T04:28:14.453Z,99422.09
2023-02-16T04:30:46.426Z,99421.06
2023-02-16T04:33:19.179Z,99414.88
2023-02-16T04:35:51.152Z,99416.13
2023-02-16T04:38:24.662Z,99408.47
2023-02-16T04:40:56.539Z,99416.06
2023-02-16T04:43:29.240Z,99407.16
2023-02-16T04:46:01.176Z,99416.66
2023-02-16T04:48:33.916Z,99410.97
2023-02-16T04:51:06.255Z,99415.41
2023-02-16T04:53:39.091Z,99429.13
2023-02-16T04:56:13.031Z,99425.28
2023-02-16T04:58:44.947Z,99415.88
2023-02-16T05:01:28.302Z,99418.31
2023-02-16T05:04:00.751Z,99428.97
2023-02-16T05:06:32.723Z,99426.28
2023-02-16T05:09:06.980Z,99423.94
2023-02-16T05:11:57.732Z,99425.66
2023-02-16T05:14:41.971Z,99425.88
2023-02-16T05:17:24.203Z,99422.94
2023-02-16T05:20:00.285Z,99411.69
2023-02-16T05:22:35.530Z,99418.19
2023-02-16T05:25:09.045Z,99422.63
2023-02-16T05:27:40.939Z,99430.63
2023-02-16T05:30:15.076Z,99421.59
2023-02-16T05:32:46.947Z,99431.38
2023-02-16T05:35:20.647Z,99429.44
2023-02-16T05:37:52.500Z,99440.53
2023-02-16T05:40:25.575Z,99430.59
2023-02-16T05:42:58.157Z,99428.78
2023-02-16T05:45:30.879Z,99434.50
2023-02-16T05:48:02.769Z,99438.13
2023-02-16T05:50:35.871Z,99436.72
2023-02-16T05:53:07.732Z,99434.53
2023-02-16T05:55:40.553Z,99439.88
2023-02-16T05:58:12.415Z,99441.91
2023-02-16T06:00:45.100Z,99441.31
2023-02-16T06:03:18.047Z,99445.88
2023-02-16T06:05:58.883Z,99445.66
2023-02-16T06:08:33.316Z,99448.00
2023-02-16T06:11:07.152Z,99448.38
2023-02-16T06:13:40.562Z,99448.38
2023-02-16T06:16:12.586Z,99453.22
2023-02-16T06:18:45.327Z,99468.81
2023-02-16T06:21:17.242Z,99456.06
2023-02-16T06:23:50.420Z,99469.97
2023-02-16T06:26:22.742Z,99459.34
2023-02-16T06:28:59.004Z,99455.78
2023-02-16T06:31:31.518Z,99459.44
2023-02-16T06:34:05.647Z,99464.59
2023-02-16T06:36:40.645Z,99459.09
2023-02-16T06:39:14.403Z,99456.97
2023-02-16T06:41:47.277Z,99458.53
2023-02-16T06:44:19.251Z,99459.03
2023-02-16T06:46:52.989Z,99471.25
2023-02-16T06:49:27.725Z,99476.31
2023-02-16T06:52:23.309Z,99471.44
2023-02-16T06:54:55.696Z,99472.31
2023-02-16T06:57:28.466Z,99478.16
2023-02-16T07:00:00.351Z,99470.03
2023-02-16T07:02:32.936Z,99479.56
2023-02-16T07:05:05.789Z,99467.00
2023-02-16T07:07:39.629Z,99469.53
2023-02-16T07:10:11.648Z,99473.69
2023-02-16T07:12:48.169Z,99472.78
2023-02-16T07:15:20.410Z,99482.75
2023-02-16T07:17:53.835Z,99482.19
2023-02-16T07:20:26.929Z,99487.38
2023-02-16T07:23:00.355Z,99486.13
2023-02-16T07:25:36.754Z,99487.47
2023-02-16T07:28:10.147Z,99493.03
2023-02-16T07:30:42.584Z,99500.69
2023-02-16T07:33:16.519Z,99496.16
2023-02-16T07:35:48.534Z,99504.63
2023-02-16T07:38:21.288Z,99501.50
2023-02-16T07:40:53.178Z,99501.34
2023-02-16T07:43:26.905Z,99507.56
2023-02-16T07:48:53.714Z,99520.84
2023-02-16T07:51:29.936Z,99515.50
2023-02-16T07:54:02.902Z,99517.56
2023-02-16T07:56:36.214Z,99520.00
2023-02-16T07:59:08.510Z,99517.59
2023-02-16T08:01:42.520Z,99514.94
2023-02-16T08:04:15.235Z,99512.84
2023-02-16T08:06:51.220Z,99508.28
2023-02-16T08:09:23.781Z,99514.00
2023-02-16T08:11:56.119Z,99510.22
2023-02-16T08:14:31.612Z,99511.53
2023-02-16T08:17:06.314Z,99503.56
2023-02-16T08:19:39.894Z,99497.50
2023-02-16T08:22:12.212Z,99498.16
2023-02-16T08:24:45.011Z,99494.03
2023-02-16T08:27:17.328Z,99493.47
2023-02-16T08:29:50.857Z,99492.78
2023-02-16T08:32:22.859Z,99481.72
2023-02-16T08:34:58.203Z,99489.03
2023-02-16T08:40:24.872Z,99484.44
2023-02-16T08:48:44.328Z,99477.72
2023-02-16T08:51:39.156Z,99479.16
2023-02-16T08:54:27.999Z,99480.69
2023-02-16T08:57:22.150Z,99474.63
2023-02-16T09:00:13.984Z,99476.78
2023-02-16T09:02:47.029Z,99485.94
2023-02-16T09:08:13.370Z,99477.31
2023-02-16T09:10:45.843Z,99496.91
2023-02-16T09:13:18.923Z,99498.16
2023-02-16T09:15:51.588Z,99501.63
2023-02-16T09:18:25.492Z,99501.22
2023-02-16T09:20:57.456Z,99499.25
2023-02-16T09:23:32.016Z,99509.00
2023-02-16T09:26:07.370Z,99508.03
2023-02-16T09:28:41.786Z,99504.69
2023-02-16T09:31:25.909Z,99515.69
2023-02-16T09:34:04.629Z,99509.41
2023-02-16T09:36:38.299Z,99511.66
2023-02-16T09:39:11.678Z,99516.75
2023-02-16T09:42:05.827Z,99512.53
2023-02-16T09:45:10.424Z,99512.09
2023-02-16T09:47:45.952Z,99501.44
2023-02-16T09:50:50.272Z,99506.03
2023-02-16T09:53:32.842Z,99495.28
2023-02-16T09:56:37.408Z,99496.94
2023-02-16T09:59:41.572Z,99496.63
2023-02-16T10:02:23.944Z,99507.13
2023-02-16T10:05:22.312Z,99509.81
2023-02-16T10:08:13.328Z,99516.34
2023-02-16T10:11:04.054Z,99507.47
2023-02-16T10:13:47.052Z,99505.09
2023-02-16T10:16:39.265Z,99496.53
2023-02-16T10:19:26.768Z,99500.97
2023-02-16T10:22:04.242Z,99500.19
2023-02-16T10:25:03.788Z,99499.81
2023-02-16T10:30:17.206Z,99482.91
2023-02-16T10:33:03.902Z,99477.25
2023-02-16T10:35:57.096Z,99476.63
2023-02-16T10:39:14.521Z,99488.44
2023-02-16T10:42:02.357Z,99489.78
2023-02-16T10:44:45.990Z,99491.38
2023-02-16T10:47:34.901Z,99482.91
2023-02-16T10:50:19.187Z,99471.97
2023-02-16T10:53:15.234Z,99482.78
2023-02-16T10:55:47.131Z,99469.88
2023-02-16T10:58:27.319Z,99473.31
2023-02-16T11:01:08.476Z,99465.38
2023-02-16T11:03:50.272Z,99466.78
2023-02-16T11:06:25.759Z,99462.69
2023-02-16T11:09:02.274Z,99464.56
2023-02-16T11:11:41.029Z,99466.84
2023-02-16T11:14:25.299Z,99464.34
2023-02-16T11:17:25.489Z,99462.22
2023-02-16T11:20:05.715Z,99468.41
2023-02-16T11:22:41.870Z,99458.81
2023-02-16T11:25:27.509Z,99447.47
2023-02-16T11:28:10.223Z,99447.66
2023-02-16T11:30:43.945Z,99448.38
2023-02-16T11:33:24.382Z,99446.63
2023-02-16T11:35:58.718Z,99443.84
2023-02-16T11:38:37.390Z,99435.34
2023-02-16T11:41:24.645Z,99429.94
2023-02-16T11:43:58.371Z,99423.31
2023-02-16T11:46:40.776Z,99434.25
2023-02-16T11:49:41.349Z,99421.16
2023-02-16T11:52:36.087Z,99419.78
2023-02-16T11:55:33.899Z,99421.78
2023-02-16T11:58:26.445Z,99431.00
2023-02-16T12:01:37.101Z,99427.00
2023-02-16T12:04:36.303Z,99418.22
2023-02-16T12:08:06.929Z,99420.41
2023-02-16T12:10:53.501Z,99410.88
2023-02-16T12:14:07.109Z,99405.00
2023-02-16T12:16:52.813Z,99409.03
2023-02-16T12:19:38.918Z,99402.66
2023-02-16T12:22:34.920Z,99401.06
2023-02-16T12:29:38.352Z,99387.50
2023-02-16T12:32:38.946Z,99398.41
2023-02-16T12:35:22.242Z,99398.69
2023-02-16T12:38:17.647Z,99394.69
2023-02-16T12:44:42.445Z,99390.63
2023-02-16T12:47:47.414Z,99390.44
2023-02-16T12:50:25.355Z,99387.94
2023-02-16T12:53:10.167Z,99381.41
2023-02-16T12:55:59.606Z,99384.78
2023-02-16T12:58:45.186Z,99379.50
2023-02-16T13:01:25.570Z,99381.56
2023-02-16T13:04:41.053Z,99384.19
2023-02-16T13:07:32.925Z,99380.22
2023-02-16T13:10:25.187Z,99369.56
2023-02-16T13:13:11.825Z,99374.22
2023-02-16T13:16:28.714Z,99372.19
2023-02-16T13:19:01.918Z,99368.81
2023-02-16T13:22:15.168Z,99361.31
2023-02-16T13:25:24.152Z,99358.56
2023-02-16T13:28:58.460Z,99351.94
2023-02-16T13:32:06.718Z,99348.66
2023-02-16T13:38:35.046Z,99343.69
2023-02-16T13:41:53.279Z,99337.03
2023-02-16T13:44:56.408Z,99345.00
2023-02-16T13:47:38.366Z,99342.31
2023-02-16T13:50:22.921Z,99350.28
2023-02-16T13:52:59.519Z,99344.38
2023-02-16T13:55:35.573Z,99347.03
2023-02-16T13:58:29.569Z,99350.38
2023-02-16T14:01:43.355Z,99350.38
2023-02-16T14:04:28.040Z,99352.34
2023-02-16T14:07:03.222Z,99347.69
2023-02-16T14:09:39.481Z,99342.38
2023-02-16T14:12:17.694Z,99348.38
2023-02-16T14:14:53.067Z,99356.34
2023-02-16T14:17:31.476Z,99341.06
2023-02-16T14:20:16.158Z,99345.72
2023-02-16T14:22:57.299Z,99337.06
2023-02-16T14:25:38.202Z,99335.75
2023-02-16T14:28:22.016Z,99341.75
2023-02-16T14:31:00.626Z,99333.75
2023-02-16T14:34:02.135Z,99331.13
2023-02-16T14:36:35.574Z,99331.09
2023-02-16T14:39:12.613Z,99343.03
2023-02-16T14:41:45.701Z,99335.75
2023-02-16T14:44:38.608Z,99337.75
2023-02-16T14:47:48.227Z,99329.13
2023-02-16T14:50:34.550Z,99343.06
2023-02-16T14:54:01.652Z,99341.75
2023-02-16T14:56:46.174Z,99347.72
2023-02-16T14:59:37.128Z,99347.03
2023-02-16T15:02:30.497Z,99345.06
2023-02-16T15:05:22.392Z,99349.03
2023-02-16T15:08:23.916Z,99352.34
2023-02-16T15:10:58.423Z,99338.41
2023-02-16T15:13:33.433Z,99340.38
2023-02-16T15:16:24.742Z,99324.47
2023-02-16T15:18:58.670Z,99336.38
2023-02-16T15:21:30.668Z,99337.72
2023-02-16T15:24:25.964Z,99332.41
2023-02-16T15:27:01.556Z,99332.41
2023-02-16T15:29:34.627Z,99334.38
2023-02-16T15:32:08.727Z,99329.72
2023-02-16T15:34:43.175Z,99331.72
2023-02-16T15:37:36.899Z,99332.38
2023-02-16T15:40:25.481Z,99327.09
2023-02-16T15:43:16.889Z,99321.09
2023-02-16T15:45:53.089Z,99312.47
2023-02-16T15:48:32.022Z,99311.78
2023-02-16T15:51:29.356Z,99309.78
2023-02-16T15:54:12.456Z,99306.50
2023-02-16T15:56:48.823Z,99309.09
2023-02-16T15:59:48.174Z,99307.78
2023-02-16T16:02:33.529Z,99315.72
2023-02-16T16:08:18.513Z,99320.38
2023-02-16T16:10:54.457Z,99324.34
2023-02-16T16:13:30.981Z,99340.25
2023-02-16T16:16:04.707Z,99338.22
2023-02-16T16:18:46.519Z,99336.19
2023-02-16T16:21:29.015Z,99325.59
2023-02-16T16:24:06.777Z,99320.28
2023-02-16T16:26:55.658Z,99322.94
2023-02-16T16:29:39.251Z,99321.59
2023-02-16T16:32:28.624Z,99324.25
2023-02-16T16:35:01.907Z,99320.91
2023-02-16T16:37:36.334Z,99317.59
2023-02-16T16:40:33.705Z,99320.28
2023-02-16T16:43:15.271Z,99319.56
2023-02-16T16:46:16.506Z,99329.50
2023-02-16T16:48:52.716Z,99330.78
2023-02-16T16:51:27.444Z,99322.16
2023-02-16T16:54:31.437Z,99332.13
2023-02-16T16:57:15.966Z,99328.78
2023-02-16T16:59:48.741Z,99328.16
2023-02-16T17:02:20.652Z,99326.13
2023-02-16T17:04:53.437Z,99316.16
2023-02-16T17:07:25.321Z,99324.13
2023-02-16T17:09:58.112Z,99332.06
2023-02-16T17:12:31.055Z,99324.06
2023-02-16T17:15:05.971Z,99328.69
2023-02-16T17:17:38.862Z,99329.41
2023-02-16T17:20:14.726Z,99318.81
2023-02-16T17:22:47.830Z,99324.06
2023-02-16T17:25:20.712Z,99327.38
2023-02-16T17:27:52.696Z,99322.06
2023-02-16T17:30:25.969Z,99322.69
2023-02-16T17:32:58.404Z,99326.03
2023-02-16T17:35:32.098Z,99336.59
2023-02-16T17:38:23.714Z,99337.91
2023-02-16T17:40:57.438Z,99341.84
2023-02-16T17:43:30.220Z,99350.53
2023-02-16T17:46:06.170Z,99356.41
2023-02-16T17:48:39.678Z,99356.38
2023-02-16T17:51:17.440Z,99362.97
2023-02-16T17:53:50.607Z,99359.66
2023-02-16T17:56:24.999Z,99362.31
2023-02-16T17:58:58.153Z,99365.00
2023-02-16T18:01:31.452Z,99370.91
2023-02-16T18:04:04.116Z,99379.53
2023-02-16T18:06:36.931Z,99379.53
2023-02-16T18:09:15.993Z,99384.13
2023-02-16T18:11:47.844Z,99376.88
2023-02-16T18:14:20.650Z,99373.66
2023-02-16T18:16:53.223Z,99380.28
2023-02-16T18:19:27.406Z,99367.66
2023-02-16T18:22:00.608Z,99373.66
2023-02-16T18:24:33.320Z,99371.63
2023-02-16T18:27:05.521Z,99377.59
2023-02-16T18:29:38.679Z,99371.59
2023-02-16T18:32:10.554Z,99375.53
2023-02-16T18:34:43.675Z,99370.25
2023-02-16T18:37:16.191Z,99386.19
2023-02-16T18:39:50.547Z,99377.53
2023-02-16T18:42:22.473Z,99372.91
2023-02-16T18:44:55.272Z,99384.13
2023-02-16T18:47:27.643Z,99381.44
2023-02-16T18:50:02.912Z,99368.94
2023-02-16T18:52:35.631Z,99380.13
2023-02-16T18:55:09.776Z,99384.13
2023-02-16T18:57:42.162Z,99381.38
2023-02-16T19:00:16.753Z,99382.13
2023-02-16T19:02:49.838Z,99377.47
2023-02-16T19:05:23.069Z,99380.09
2023-02-16T19:07:55.942Z,99393.31
2023-02-16T19:10:28.252Z,99393.31
2023-02-16T19:13:02.110Z,99395.28
2023-02-16T19:15:38.949Z,99400.66
2023-02-16T19:18:11.774Z,99396.63
2023-02-16T19:20:44.587Z,99396.63
2023-02-16T19:23:16.432Z,99392.63
2023-02-16T19:25:49.216Z,99390.63
2023-02-16T19:28:21.288Z,99390.63
2023-02-16T19:30:54.460Z,99387.38
2023-02-16T19:33:26.417Z,99389.34
2023-02-16T19:36:05.824Z,99395.97
2023-02-16T19:38:39.436Z,99401.88
2023-02-16T19:41:20.845Z,99399.22
2023-02-16T19:43:53.143Z,99397.25
2023-02-16T19:46:26.629Z,99394.59
2023-02-16T19:48:59.851Z,99403.84
2023-02-16T19:51:32.605Z,99397.91
2023-02-16T19:54:08.308Z,99408.47
2023-02-16T19:56:41.597Z,99411.16
2023-02-16T19:59:15.732Z,99401.84
2023-02-16T20:01:47.620Z,99401.19
2023-02-16T20:04:20.743Z,99405.16
2023-02-16T20:06:54.815Z,99401.91
2023-02-16T20:09:28.572Z,99408.47
2023-02-16T20:12:01.112Z,99395.25
2023-02-16T20:14:33.804Z,99403.88
2023-02-16T20:17:05.983Z,99401.19
2023-02-16T20:19:39.462Z,99397.91
2023-02-16T20:22:11.842Z,99399.38
2023-02-16T20:24:47.623Z,99394.06
2023-02-16T20:27:19.987Z,99395.31
2023-02-16T20:29:53.073Z,99399.25
2023-02-16T20:32:26.665Z,99394.06
2023-02-16T20:35:03.192Z,99390.06
2023-02-16T20:37:35.707Z,99392.78
2023-02-16T20:40:08.845Z,99388.06
2023-02-16T20:42:41.144Z,99384.16
2023-02-16T20:45:13.334Z,99394.78
2023-02-16T20:47:46.611Z,99393.44
2023-02-16T20:50:19.516Z,99391.44
2023-02-16T20:52:51.380Z,99386.09
2023-02-16T20:55:24.532Z,99398.75
2023-02-16T20:57:56.982Z,99394.06
2023-02-16T21:00:29.744Z,99396.72
2023-02-16T21:03:03.181Z,99394.13
2023-02-16T21:05:35.482Z,99397.44
2023-02-16T21:08:11.582Z,99394.16
2023-02-16T21:10:44.607Z,99401.38
2023-02-16T21:13:17.495Z,99395.50
2023-02-16T21:15:49.407Z,99396.75
2023-02-16T21:18:22.356Z,99393.50
2023-02-16T21:20:54.699Z,99400.78
2023-02-16T21:23:27.211Z,99396.84
2023-02-16T21:26:05.081Z,99391.50
2023-02-16T21:28:59.186Z,99386.88
2023-02-16T21:31:32.403Z,99383.59
2023-02-16T21:34:04.931Z,99390.16
2023-02-16T21:36:59.351Z,99390.16
2023-02-16T21:39:51.208Z,99376.31
2023-02-16T21:42:23.522Z,99386.91
2023-02-16T21:45:12.804Z,99377.00
2023-02-16T21:48:05.721Z,99373.03
2023-02-16T21:50:40.873Z,99367.03
2023-02-16T21:53:12.983Z,99363.03
2023-02-16T21:56:04.943Z,99367.75
2023-02-16T21:58:37.093Z,99363.09
2023-02-16T22:01:10.030Z,99358.41
2023-02-16T22:03:42.436Z,99369.00
2023-02-16T22:06:15.214Z,99357.09
2023-02-16T22:08:47.496Z,99366.38
2023-02-16T22:11:19.498Z,99363.69
2023-02-16T22:13:57.744Z,99355.09
2023-02-16T22:16:33.064Z,99366.38
2023-02-16T22:19:11.440Z,99353.78
2023-02-16T22:21:45.477Z,99357.13
2023-02-16T22:24:19.581Z,99349.19
2023-02-16T22:26:51.541Z,99359.81
2023-02-16T22:29:24.263Z,99353.16
2023-02-16T22:31:56.549Z,99354.47
2023-02-16T22:34:29.545Z,99363.78
2023-02-16T22:37:01.808Z,99363.09
2023-02-16T22:39:34.492Z,99355.84
2023-02-16T22:42:06.810Z,99345.91
2023-02-16T22:44:39.080Z,99357.78
2023-02-16T22:47:32.908Z,99360.44
2023-02-16T22:50:05.939Z,99353.19
2023-02-16T22:55:31.265Z,99362.44
2023-02-16T22:58:04.571Z,99363.13
2023-02-16T23:00:37.400Z,99363.06
2023-02-16T23:03:09.289Z,99369.72
2023-02-16T23:05:42.068Z,99370.38
2023-02-16T23:08:14.112Z,99362.41
2023-02-16T23:11:00.306Z,99365.06
2023-02-16T23:13:34.197Z,99359.13
2023-02-16T23:16:11.985Z,99361.69
2023-02-16T23:18:46.556Z,99353.81
2023-02-16T23:21:28.376Z,99369.00
2023-02-16T23:24:01.360Z,99360.41
2023-02-16T23:26:33.745Z,99366.38
2023-02-16T23:29:07.701Z,99359.72
2023-02-16T23:31:42.068Z,99364.31
2023-02-16T23:34:15.489Z,99357.72
2023-02-16T23:36:47.772Z,99360.38
2023-02-16T23:39:20.928Z,99368.28
2023-02-16T23:41:52.810Z,99364.94
2023-02-16T23:44:25.860Z,99362.31
2023-02-16T23:46:57.774Z,99360.31
2023-02-16T23:49:30.662Z,99355.00
2023-02-16T23:52:03.398Z,99357.72
2023-02-16T23:54:36.640Z,99359.66
2023-02-16T23:57:09.650Z,99351.75
2023-02-16T23:59:43.562Z,99354.38
